Time;durP1;ratioP1;P1;durP2;ratioP2;P2;SDS_P1;SDS_P2;PMS_P1;PMS_P2;Temp;Humidity;BMP_temperature;BMP_pressure;BME280_temperature;BME280_humidity;BME280_pressure;Samples;Min_cycle;Max_cycle;Signal;HPM_P1;HPM_P2
2022/10/28 00:01:09;;;;;;;49.55;36.15;;;;;;;10.54;100.00;100570.91;4935359;29;20032;-91
2022/10/28 00:03:42;;;;;;;41.65;34.78;;;;;;;10.53;100.00;100563.97;4919367;29;20067;-90
2022/10/28 00:06:11;;;;;;;45.00;35.83;;;;;;;10.45;100.00;100547.78;4935237;29;20123;-91
2022/10/28 00:08:37;;;;;;;43.85;35.13;;;;;;;10.49;100.00;100568.47;4935031;29;20023;-91
2022/10/28 00:11:07;;;;;;;46.85;34.42;;;;;;;10.47;100.00;100559.84;4919211;29;20107;-90
2022/10/28 00:13:34;;;;;;;41.08;31.92;;;;;;;10.43;100.00;100549.56;4919156;29;20538;-91
2022/10/28 00:16:17;;;;;;;35.95;32.05;;;;;;;10.44;100.00;100554.72;4920976;28;20118;-90
2022/10/28 00:18:43;;;;;;;39.03;32.63;;;;;;;10.48;100.00;100553.72;4958318;28;20223;-91
2022/10/28 00:21:15;;;;;;;43.63;33.22;;;;;;;10.51;100.00;100554.53;4958675;28;20085;-90
2022/10/28 00:23:40;;;;;;;40.65;32.00;;;;;;;10.50;100.00;100545.88;4958423;28;20058;-90
2022/10/28 00:26:08;;;;;;;43.45;32.92;;;;;;;10.45;100.00;100545.16;4958777;28;20035;-91
2022/10/28 00:28:34;;;;;;;42.47;33.80;;;;;;;10.46;100.00;100541.66;4958689;28;20027;-91
2022/10/28 00:31:04;;;;;;;38.00;32.05;;;;;;;10.43;100.00;100542.59;4958466;28;20374;-91
2022/10/28 00:33:30;;;;;;;37.88;31.58;;;;;;;10.38;100.00;100536.69;4958231;28;20052;-90
2022/10/28 00:35:55;;;;;;;42.28;32.45;;;;;;;10.36;100.00;100541.06;4958553;28;20074;-90
2022/10/28 00:38:21;;;;;;;55.25;40.80;;;;;;;10.35;100.00;100538.53;4958562;28;20023;-91
2022/10/28 00:40:46;;;;;;;45.88;35.40;;;;;;;10.33;100.00;100535.16;4958025;28;20022;-90
2022/10/28 00:43:11;;;;;;;41.75;33.35;;;;;;;10.24;100.00;100524.13;4958299;28;20130;-91
2022/10/28 00:45:38;;;;;;;39.67;33.50;;;;;;;10.28;100.00;100532.69;4957945;28;20031;-90
2022/10/28 00:48:05;;;;;;;39.10;32.30;;;;;;;10.20;100.00;100526.81;4957155;28;20114;-90
2022/10/28 00:50:37;;;;;;;38.45;30.23;;;;;;;10.23;100.00;100526.72;4957954;28;20069;-91
2022/10/28 00:53:08;;;;;;;37.22;31.15;;;;;;;10.21;100.00;100523.31;4957747;28;20506;-91
2022/10/28 00:55:35;;;;;;;43.42;31.02;;;;;;;10.20;100.00;100516.41;4957851;28;20489;-90
2022/10/28 00:58:03;;;;;;;39.38;31.88;;;;;;;10.19;100.00;100520.75;4957843;28;20147;-91
2022/10/28 01:00:28;;;;;;;38.50;30.98;;;;;;;10.15;100.00;100508.72;4957459;28;20022;-90
2022/10/28 01:02:55;;;;;;;39.25;33.95;;;;;;;10.18;100.00;100515.59;4934280;29;20098;-90
2022/10/28 01:05:25;;;;;;;38.40;31.88;;;;;;;10.09;100.00;100508.06;4934219;29;20039;-90
2022/10/28 01:07:54;;;;;;;38.03;30.48;;;;;;;10.10;100.00;100523.63;4934207;29;20032;-90
2022/10/28 01:10:27;;;;;;;41.88;30.45;;;;;;;10.12;100.00;100521.00;4934297;29;20027;-90
2022/10/28 01:13:34;;;;;;;40.60;30.75;;;;;;;10.11;100.00;100519.28;4934083;29;20415;-91
2022/10/28 01:16:13;;;;;;;36.03;29.33;;;;;;;10.08;100.00;100516.78;4861847;29;20041;-92
2022/10/28 01:19:23;;;;;;;33.38;28.77;;;;;;;10.04;100.00;100513.44;4861584;29;20056;-91
2022/10/28 01:22:20;;;;;;;33.65;29.77;;;;;;;10.06;100.00;100510.75;4877148;29;20041;-90
2022/10/28 01:24:59;;;;;;;35.47;29.45;;;;;;;10.03;100.00;100503.03;4840169;29;20037;-90
2022/10/28 01:28:07;;;;;;;37.92;29.67;;;;;;;10.04;100.00;100504.78;4840201;29;20168;-90
2022/10/28 01:31:00;;;;;;;36.72;31.35;;;;;;;10.09;100.00;100495.06;4840141;29;20071;-91
2022/10/28 01:33:35;;;;;;;35.30;30.15;;;;;;;10.13;100.00;100497.53;4840160;29;20496;-89
2022/10/28 01:36:16;;;;;;;42.75;30.70;;;;;;;10.11;100.00;100477.63;4840288;29;20038;-91
2022/10/28 01:38:50;;;;;;;32.45;28.92;;;;;;;10.21;100.00;100489.47;4840120;29;20058;-91
2022/10/28 01:41:58;;;;;;;37.63;32.33;;;;;;;10.24;100.00;100487.66;4859358;29;20572;-90
2022/10/28 01:44:49;;;;;;;38.92;29.60;;;;;;;10.20;100.00;100483.41;4861524;29;20495;-90
2022/10/28 01:47:37;;;;;;;35.33;29.67;;;;;;;10.15;100.00;100484.44;4821950;29;20065;-90
2022/10/28 01:50:08;;;;;;;38.40;29.67;;;;;;;10.12;100.00;100482.81;4806635;29;20026;-90
2022/10/28 01:52:37;;;;;;;33.67;29.42;;;;;;;10.10;100.00;100487.19;4827517;29;20147;-90
2022/10/28 01:55:25;;;;;;;34.08;28.77;;;;;;;10.10;100.00;100476.78;4876808;29;20032;-90
2022/10/28 01:57:54;;;;;;;40.67;31.50;;;;;;;10.11;100.00;100482.84;4861020;29;20044;-90
2022/10/28 02:00:42;;;;;;;40.35;31.13;;;;;;;10.12;100.00;100468.94;4881097;29;20036;-88
2022/10/28 02:03:09;;;;;;;39.38;30.30;;;;;;;10.19;100.00;100476.47;4895374;29;20032;-91
2022/10/28 02:05:44;;;;;;;37.22;29.17;;;;;;;10.21;100.00;100471.25;4879796;29;20719;-90
2022/10/28 02:08:32;;;;;;;38.42;30.55;;;;;;;10.23;100.00;100477.25;4880077;29;20099;-91
2022/10/28 02:11:00;;;;;;;34.22;28.42;;;;;;;10.13;100.00;100466.28;4873534;29;20065;-91
2022/10/28 02:14:08;;;;;;;41.20;29.15;;;;;;;10.17;100.00;100475.69;4842461;29;20048;-90
2022/10/28 02:17:08;;;;;;;36.38;28.88;;;;;;;10.16;100.00;100479.22;4823965;29;20493;-89
2022/10/28 02:19:48;;;;;;;32.58;26.73;;;;;;;10.06;100.00;100469.13;4839080;29;20093;-91
2022/10/28 02:23:01;;;;;;;32.10;27.00;;;;;;;10.07;100.00;100479.50;4839387;29;20482;-90
2022/10/28 02:25:40;;;;;;;32.00;26.65;;;;;;;10.07;100.00;100474.28;4820983;29;20045;-89
2022/10/28 02:28:15;;;;;;;35.10;28.92;;;;;;;10.06;100.00;100467.38;4805738;29;20477;-90
2022/10/28 02:31:21;;;;;;;33.63;29.23;;;;;;;10.12;100.00;100469.78;4821013;29;20038;-90
2022/10/28 02:33:53;;;;;;;46.85;34.70;;;;;;;10.13;100.00;100478.44;4784501;30;20114;-90
2022/10/28 02:36:22;;;;;;;54.40;44.63;;;;;;;10.09;100.00;100467.28;4784836;30;20047;-91
2022/10/28 02:38:51;;;;;;;55.45;43.65;;;;;;;10.12;100.00;100467.19;4784436;30;20039;-90
2022/10/28 02:41:29;;;;;;;44.22;38.85;;;;;;;10.12;100.00;100474.16;4769641;30;20043;-90
2022/10/28 02:44:00;;;;;;;47.83;39.15;;;;;;;10.05;100.00;100463.06;4784461;30;20065;-90
2022/10/28 02:46:28;;;;;;;39.08;32.17;;;;;;;10.07;100.00;100466.50;4769795;30;20126;-90
2022/10/28 02:49:01;;;;;;;41.28;34.42;;;;;;;10.08;100.00;100476.00;4799775;29;20042;-90
2022/10/28 02:51:35;;;;;;;40.03;34.63;;;;;;;10.06;100.00;100482.13;4802850;29;20043;-90
2022/10/28 02:54:09;;;;;;;43.67;37.88;;;;;;;10.04;100.00;100463.97;4846295;29;20053;-90
2022/10/28 02:57:02;;;;;;;48.50;38.53;;;;;;;10.09;100.00;100463.81;4857038;29;20089;-90
2022/10/28 02:59:28;;;;;;;48.38;37.80;;;;;;;10.12;100.00;100466.34;4842184;29;20108;-91
2022/10/28 03:01:53;;;;;;;41.65;34.13;;;;;;;10.09;100.00;100466.44;4874713;29;20565;-90
2022/10/28 03:04:19;;;;;;;37.95;32.17;;;;;;;10.06;100.00;100466.53;4875957;29;20089;-90
2022/10/28 03:06:44;;;;;;;36.40;31.70;;;;;;;10.00;100.00;100455.41;4875480;29;20076;-90
2022/10/28 03:09:10;;;;;;;42.97;32.10;;;;;;;9.98;100.00;100457.19;4881870;29;20064;-91
2022/10/28 03:11:35;;;;;;;37.92;33.85;;;;;;;9.98;100.00;100451.97;4937357;29;20094;-91
2022/10/28 03:14:01;;;;;;;36.83;32.67;;;;;;;9.96;100.00;100459.00;4939463;29;20398;-90
2022/10/28 03:16:26;;;;;;;44.75;36.08;;;;;;;9.99;100.00;100458.06;4939265;29;20514;-91
2022/10/28 03:18:52;;;;;;;37.42;32.40;;;;;;;9.92;100.00;100440.94;4939151;29;20166;-90
2022/10/28 03:21:17;;;;;;;36.35;30.23;;;;;;;10.02;100.00;100454.50;4939192;29;20019;-91
2022/10/28 03:23:43;;;;;;;32.38;28.73;;;;;;;10.03;100.00;100457.06;4939080;29;20121;-91
2022/10/28 03:26:08;;;;;;;31.98;27.77;;;;;;;10.04;100.00;100455.31;4939292;29;20403;-89
2022/10/28 03:28:34;;;;;;;35.30;28.52;;;;;;;10.05;100.00;100450.06;4957699;28;20050;-91
2022/10/28 03:30:59;;;;;;;39.55;30.27;;;;;;;10.09;100.00;100448.22;4959462;28;20022;-90
2022/10/28 03:33:24;;;;;;;89.32;79.65;;;;;;;10.12;100.00;100442.91;4959385;28;20023;-91
2022/10/28 03:35:50;;;;;;;106.35;95.30;;;;;;;10.16;100.00;100441.91;4916671;29;20068;-91
2022/10/28 03:38:15;;;;;;;62.55;54.60;;;;;;;10.12;100.00;100438.56;4900699;29;20080;-91
2022/10/28 03:40:41;;;;;;;47.47;42.35;;;;;;;10.11;100.00;100451.59;4900656;29;20078;-90
2022/10/28 03:43:06;;;;;;;42.88;35.53;;;;;;;10.10;100.00;100437.75;4900980;29;20152;-90
2022/10/28 03:45:32;;;;;;;37.13;32.03;;;;;;;10.16;100.00;100440.16;4900990;29;20040;-90
2022/10/28 03:47:58;;;;;;;42.28;34.53;;;;;;;10.06;100.00;100432.69;4916527;29;20032;-90
2022/10/28 03:50:24;;;;;;;38.28;32.92;;;;;;;10.16;100.00;100444.53;4901026;29;20075;-90
2022/10/28 03:52:49;;;;;;;37.88;32.05;;;;;;;10.09;100.00;100448.22;4903323;29;20058;-90
2022/10/28 03:55:15;;;;;;;37.53;32.53;;;;;;;10.06;100.00;100446.53;4935583;29;20058;-90
2022/10/28 03:57:40;;;;;;;37.78;28.50;;;;;;;10.07;100.00;100447.38;4919487;29;20027;-89
2022/10/28 04:00:06;;;;;;;34.10;28.63;;;;;;;10.05;100.00;100444.84;4897535;29;20041;-91
2022/10/28 04:02:32;;;;;;;33.15;27.90;;;;;;;9.99;100.00;100443.31;4881796;29;20664;-90
2022/10/28 04:04:57;;;;;;;35.47;29.88;;;;;;;9.96;100.00;100434.72;4881540;29;20048;-90
2022/10/28 04:07:23;;;;;;;31.05;27.58;;;;;;;10.04;100.00;100443.16;4925064;29;20040;-90
2022/10/28 04:09:50;;;;;;;33.22;27.27;;;;;;;10.02;100.00;100444.09;4919147;29;20043;-90
2022/10/28 04:12:20;;;;;;;34.58;30.48;;;;;;;9.98;100.00;100436.38;4919803;29;20522;-93
2022/10/28 04:14:46;;;;;;;33.88;29.13;;;;;;;9.96;100.00;100437.34;4935669;29;20088;-91
2022/10/28 04:17:12;;;;;;;33.72;28.80;;;;;;;9.94;100.00;100434.78;4919558;29;20184;-93
2022/10/28 04:19:37;;;;;;;34.08;29.60;;;;;;;9.96;100.00;100427.78;4919232;29;20499;-90
2022/10/28 04:22:02;;;;;;;34.00;30.20;;;;;;;9.93;100.00;100432.22;4918037;29;20532;-90
2022/10/28 04:24:28;;;;;;;34.38;28.60;;;;;;;9.87;100.00;100420.25;4918909;29;20489;-90
2022/10/28 04:26:53;;;;;;;35.47;30.65;;;;;;;9.92;100.00;100435.72;4918884;29;20058;-90
2022/10/28 04:29:19;;;;;;;34.58;27.60;;;;;;;9.90;100.00;100427.97;4919028;29;20035;-91
2022/10/28 04:31:44;;;;;;;36.33;30.75;;;;;;;9.91;100.00;100428.84;4948868;28;20046;-90
2022/10/28 04:34:09;;;;;;;35.78;30.25;;;;;;;9.91;100.00;100429.69;4958577;28;20030;-90
2022/10/28 04:36:35;;;;;;;37.58;33.05;;;;;;;9.91;100.00;100427.06;4958241;28;20034;-89
2022/10/28 04:39:00;;;;;;;39.38;34.30;;;;;;;9.91;100.00;100431.44;4957985;28;20033;-90
2022/10/28 04:41:26;;;;;;;37.65;32.47;;;;;;;9.90;100.00;100433.19;4958344;28;20113;-90
2022/10/28 04:43:52;;;;;;;42.40;33.33;;;;;;;9.86;100.00;100418.56;4958135;28;20045;-90
2022/10/28 04:46:17;;;;;;;39.20;32.28;;;;;;;9.88;100.00;100421.09;4958371;28;20031;-90
2022/10/28 04:48:45;;;;;;;40.17;32.38;;;;;;;9.84;100.00;100417.75;4957973;28;20033;-90
2022/10/28 04:51:10;;;;;;;40.97;33.10;;;;;;;9.85;100.00;100422.03;4958183;28;20415;-89
2022/10/28 04:53:35;;;;;;;40.20;33.30;;;;;;;9.82;100.00;100416.97;4948938;29;20051;-90
2022/10/28 04:56:01;;;;;;;41.08;32.72;;;;;;;9.80;100.00;100417.91;4938574;29;20027;-90
2022/10/28 04:58:26;;;;;;;42.65;32.22;;;;;;;9.77;100.00;100412.78;4938912;29;20122;-90
2022/10/28 05:00:52;;;;;;;41.03;32.28;;;;;;;9.71;100.00;100412.06;4938591;29;20479;-90
2022/10/28 05:03:17;;;;;;;41.60;31.85;;;;;;;9.72;100.00;100415.53;4938745;29;20030;-91
2022/10/28 05:05:42;;;;;;;41.15;29.67;;;;;;;9.68;100.00;100409.56;4954660;29;20371;-89
2022/10/28 05:08:08;;;;;;;35.65;29.63;;;;;;;9.66;100.00;100405.31;4954543;29;20023;-91
2022/10/28 05:10:33;;;;;;;32.63;28.27;;;;;;;9.67;100.00;100409.63;4954526;29;20030;-89
2022/10/28 05:12:59;;;;;;;40.30;29.50;;;;;;;9.64;100.00;100407.09;4938474;29;20474;-93
2022/10/28 05:15:25;;;;;;;34.10;27.77;;;;;;;9.63;100.00;100398.44;4922923;29;20098;-89
2022/10/28 05:17:51;;;;;;;38.95;29.20;;;;;;;9.63;100.00;100408.84;4938356;29;20055;-88
2022/10/28 05:20:18;;;;;;;33.05;26.80;;;;;;;9.60;100.00;100413.28;4938265;29;20488;-88
2022/10/28 05:22:52;;;;;;;36.42;28.15;;;;;;;9.56;100.00;100414.28;4954036;29;20019;-88
2022/10/28 05:25:18;;;;;;;34.22;28.65;;;;;;;9.56;100.00;100404.72;4955444;29;20493;-88
2022/10/28 05:27:44;;;;;;;38.80;28.48;;;;;;;9.57;100.00;100398.66;4954260;29;20023;-87
2022/10/28 05:30:11;;;;;;;43.00;31.73;;;;;;;9.55;100.00;100389.19;4954375;29;20070;-88
2022/10/28 05:32:36;;;;;;;41.75;32.60;;;;;;;9.60;100.00;100392.50;4938194;29;20055;-88
2022/10/28 05:35:02;;;;;;;37.25;29.88;;;;;;;9.65;100.00;100401.00;4937696;29;20495;-87
2022/10/28 05:37:28;;;;;;;37.50;30.58;;;;;;;9.63;100.00;100401.06;4953907;29;20086;-88
2022/10/28 05:39:53;;;;;;;40.05;30.40;;;;;;;9.62;100.00;100386.34;4937841;29;20023;-88
2022/10/28 05:42:18;;;;;;;42.47;32.70;;;;;;;9.70;100.00;100392.16;4955638;29;20019;-88
2022/10/28 05:44:44;;;;;;;39.08;31.25;;;;;;;9.75;100.00;100403.28;4937772;29;20110;-87
2022/10/28 05:47:09;;;;;;;41.78;31.13;;;;;;;9.81;100.00;100393.56;4937983;29;20031;-88
2022/10/28 05:49:35;;;;;;;42.10;32.13;;;;;;;9.89;100.00;100399.38;4937889;29;20467;-88
2022/10/28 05:52:00;;;;;;;39.75;31.05;;;;;;;9.87;100.00;100386.44;4937518;29;20024;-88
2022/10/28 05:54:26;;;;;;;39.15;32.20;;;;;;;10.00;100.00;100398.16;4950033;29;20649;-88
2022/10/28 05:56:51;;;;;;;35.83;30.60;;;;;;;10.07;100.00;100397.94;4955219;29;20486;-88
2022/10/28 05:59:16;;;;;;;36.42;30.67;;;;;;;10.13;100.00;100392.56;4937615;29;20027;-88
2022/10/28 06:01:42;;;;;;;43.33;30.75;;;;;;;10.20;100.00;100387.09;4937688;29;20118;-88
2022/10/28 06:04:07;;;;;;;37.25;31.08;;;;;;;10.32;100.00;100390.19;4937230;29;20035;-88
2022/10/28 06:06:33;;;;;;;38.50;29.15;;;;;;;10.43;100.00;100377.69;4937585;29;20117;-88
2022/10/28 06:08:58;;;;;;;32.35;27.05;;;;;;;10.51;100.00;100377.41;4932722;29;20043;-88
2022/10/28 06:11:23;;;;;;;34.67;27.27;;;;;;;10.66;100.00;100382.94;4917309;29;20122;-88
2022/10/28 06:13:49;;;;;;;34.67;27.90;;;;;;;10.85;100.00;100379.69;4916920;29;20039;-88
2022/10/28 06:16:14;;;;;;;33.97;27.10;;;;;;;10.91;100.00;100363.81;4917101;29;20075;-88
2022/10/28 06:18:40;;;;;;;37.03;27.65;;;;;;;11.23;100.00;100362.63;4916914;29;20058;-87
2022/10/28 06:21:05;;;;;;;36.08;27.85;;;;;;;11.55;100.00;100377.03;4932930;29;20601;-87
2022/10/28 06:23:30;;;;;;;39.25;30.15;;;;;;;11.85;100.00;100377.63;4917000;29;20042;-87
2022/10/28 06:26:01;;;;;;;32.95;25.58;;;;;;;12.19;100.00;100392.75;4916701;29;20020;-88
2022/10/28 06:28:27;;;;;;;24.63;21.58;;;;;;;12.54;100.00;100390.41;4916770;29;20513;-87
2022/10/28 06:30:52;;;;;;;25.58;21.27;;;;;;;12.99;100.00;100403.25;4916651;29;20031;-87
2022/10/28 06:33:18;;;;;;;24.60;20.80;;;;;;;13.26;100.00;100415.19;4916853;29;20094;-87
2022/10/28 06:35:43;;;;;;;23.52;20.38;;;;;;;13.36;100.00;100406.84;4916802;29;20477;-87
2022/10/28 06:38:09;;;;;;;23.60;19.30;;;;;;;13.33;100.00;100406.13;4916512;29;20427;-87
2022/10/28 06:40:34;;;;;;;20.95;18.85;;;;;;;13.17;100.00;100414.66;4927577;29;20508;-88
2022/10/28 06:43:01;;;;;;;22.58;18.63;;;;;;;13.05;100.00;100412.56;4916546;29;20042;-88
2022/10/28 06:45:28;;;;;;;23.35;20.25;;;;;;;12.87;100.00;100410.78;4917704;29;20031;-89
2022/10/28 06:47:56;;;;;;;26.58;20.98;;;;;;;12.84;100.00;100408.28;4924494;29;20094;-87
2022/10/28 06:50:21;;;;;;;38.38;27.20;;;;;;;12.87;100.00;100416.00;4926095;29;20094;-87
2022/10/28 06:52:46;;;;;;;24.02;21.45;;;;;;;12.85;100.00;100412.59;4931786;29;20039;-87
2022/10/28 06:55:12;;;;;;;45.00;30.38;;;;;;;12.86;100.00;100424.78;4939071;29;20031;-87
2022/10/28 06:57:37;;;;;;;74.28;43.30;;;;;;;12.82;100.00;100413.59;4961504;28;20118;-87
2022/10/28 07:00:03;;;;;;;66.85;40.85;;;;;;;12.94;100.00;100427.91;4934708;29;20023;-87
2022/10/28 07:02:29;;;;;;;42.42;28.73;;;;;;;12.99;100.00;100411.09;4951228;29;20586;-88
2022/10/28 07:04:54;;;;;;;37.17;26.05;;;;;;;13.07;100.00;100421.22;4935243;29;20035;-87
2022/10/28 07:07:19;;;;;;;37.22;25.40;;;;;;;13.10;100.00;100426.28;4951402;29;20058;-87
2022/10/28 07:09:45;;;;;;;42.15;29.83;;;;;;;13.14;100.00;100419.16;4940410;29;20023;-88
2022/10/28 07:12:10;;;;;;;45.85;31.50;;;;;;;13.16;100.00;100415.56;4955204;28;20565;-87
2022/10/28 07:14:36;;;;;;;38.45;29.35;;;;;;;13.26;100.00;100420.41;4955993;28;20485;-88
2022/10/28 07:17:01;;;;;;;24.70;21.10;;;;;;;13.29;100.00;100418.50;4954097;28;20027;-87
2022/10/28 07:19:26;;;;;;;22.75;18.92;;;;;;;13.32;100.00;100405.31;4954826;28;20050;-88
2022/10/28 07:21:52;;;;;;;24.40;19.63;;;;;;;13.48;100.00;100418.50;4955371;28;20113;-87
2022/10/28 07:24:17;;;;;;;24.63;18.98;;;;;;;13.51;100.00;100415.75;4955620;28;20478;-87
2022/10/28 07:26:42;;;;;;;21.50;17.85;;;;;;;13.49;100.00;100417.59;4955285;28;20033;-87
2022/10/28 07:29:08;;;;;;;21.65;17.17;;;;;;;13.53;100.00;100423.56;4954597;28;20030;-88
2022/10/28 07:31:33;;;;;;;23.63;16.95;;;;;;;13.60;100.00;100417.09;4955407;28;20065;-87
2022/10/28 07:33:59;;;;;;;19.42;16.33;;;;;;;13.60;100.00;100407.47;4955264;28;20018;-88
2022/10/28 07:36:24;;;;;;;21.30;16.92;;;;;;;13.60;100.00;100415.31;4953003;28;20027;-88
2022/10/28 07:38:51;;;;;;;25.77;17.70;;;;;;;13.55;100.00;100416.47;4972958;28;20022;-88
2022/10/28 07:41:18;;;;;;;17.98;16.00;;;;;;;13.56;100.00;100410.28;4954944;28;20410;-88
2022/10/28 07:43:43;;;;;;;18.15;16.25;;;;;;;13.78;100.00;100412.75;4955080;28;20073;-88
2022/10/28 07:46:09;;;;;;;17.40;15.52;;;;;;;14.14;100.00;100420.59;4954744;28;20027;-88
2022/10/28 07:48:35;;;;;;;21.25;16.80;;;;;;;14.44;100.00;100424.31;4955399;28;20023;-88
2022/10/28 07:51:06;;;;;;;20.08;15.48;;;;;;;14.71;100.00;100424.75;4953868;28;20122;-89
2022/10/28 07:53:31;;;;;;;17.05;14.65;;;;;;;14.87;100.00;100422.16;4936018;29;20066;-89
2022/10/28 07:55:59;;;;;;;18.20;14.93;;;;;;;15.05;100.00;100419.53;4936199;29;20024;-88
2022/10/28 07:58:24;;;;;;;20.90;14.65;;;;;;;15.06;100.00;100415.97;4961358;28;20030;-89
2022/10/28 08:00:50;;;;;;;15.90;13.38;;;;;;;15.26;100.00;100409.66;4965253;28;20030;-88
2022/10/28 08:03:15;;;;;;;17.95;13.52;;;;;;;15.38;100.00;100414.22;4984116;28;20106;-89
2022/10/28 08:05:41;;;;;;;16.83;13.40;;;;;;;15.33;100.00;100414.47;4960243;28;20019;-89
2022/10/28 08:08:06;;;;;;;14.40;11.65;;;;;;;15.52;100.00;100410.84;4990007;28;20034;-89
2022/10/28 08:10:31;;;;;;;14.80;11.98;;;;;;;15.72;100.00;100408.00;4961574;28;20436;-88
2022/10/28 08:12:57;;;;;;;14.98;11.88;;;;;;;15.90;100.00;100416.63;4957510;28;20091;-88
2022/10/28 08:15:23;;;;;;;15.45;11.45;;;;;;;16.05;100.00;100412.28;4957928;28;20073;-89
2022/10/28 08:17:55;;;;;;;14.02;10.07;;;;;;;16.17;100.00;100401.91;4958599;28;20027;-88
2022/10/28 08:20:21;;;;;;;14.40;11.27;;;;;;;16.29;100.00;100392.47;4975810;28;20031;-89
2022/10/28 08:22:47;;;;;;;12.77;11.10;;;;;;;16.37;100.00;100398.13;4958575;28;20026;-89
2022/10/28 08:25:12;;;;;;;11.85;10.60;;;;;;;16.45;100.00;100405.56;4976014;28;20069;-89
2022/10/28 08:27:40;;;;;;;15.43;10.30;;;;;;;16.48;100.00;100412.44;4958618;28;20113;-89
2022/10/28 08:30:07;;;;;;;12.07;10.38;;;;;;;16.51;100.00;100420.97;4975433;28;20022;-89
2022/10/28 08:32:32;;;;;;;12.32;9.93;;;;;;;16.57;100.00;100425.03;4974283;28;20019;-89
2022/10/28 08:34:57;;;;;;;14.07;9.93;;;;;;;16.60;100.00;100422.22;4975651;28;20027;-89
2022/10/28 08:37:23;;;;;;;13.00;11.20;;;;;;;16.66;100.00;100416.59;4974587;28;20027;-89
2022/10/28 08:39:48;;;;;;;16.23;10.88;;;;;;;16.63;100.00;100409.72;4958262;28;20459;-89
2022/10/28 08:42:46;;;;;;;13.27;10.52;;;;;;;16.64;100.00;100405.31;4954426;28;20035;-89
2022/10/28 08:45:48;;;;;;;15.57;11.15;;;;;;;16.63;100.00;100407.09;4938967;29;20447;-88
2022/10/28 08:48:30;;;;;;;15.52;9.95;;;;;;;16.55;100.00;100393.56;4938866;29;20033;-89
2022/10/28 08:51:07;;;;;;;16.40;10.50;;;;;;;16.70;100.00;100405.81;4954612;29;20106;-89
2022/10/28 08:53:40;;;;;;;15.90;11.43;;;;;;;16.73;100.00;100412.72;4938713;29;20107;-89
2022/10/28 08:56:46;;;;;;;13.48;10.15;;;;;;;16.76;100.00;100407.25;4954717;29;20077;-89
2022/10/28 08:59:20;;;;;;;12.77;10.52;;;;;;;16.78;100.00;100407.16;4918372;29;20422;-89
2022/10/28 09:01:50;;;;;;;13.07;10.68;;;;;;;16.77;100.00;100406.31;4915302;29;20036;-89
2022/10/28 09:04:38;;;;;;;15.98;11.80;;;;;;;16.78;100.00;100415.06;4915180;29;20051;-89
2022/10/28 09:07:04;;;;;;;15.35;12.95;;;;;;;16.74;100.00;100406.50;4918255;29;20122;-89
2022/10/28 09:09:31;;;;;;;18.30;11.05;;;;;;;16.70;100.00;100400.53;4917642;29;20035;-89
2022/10/28 09:12:02;;;;;;;16.70;12.55;;;;;;;16.72;99.05;100403.06;4934107;29;20031;-89
2022/10/28 09:14:42;;;;;;;14.18;11.15;;;;;;;16.76;99.62;100409.03;4918222;29;20046;-88
2022/10/28 09:17:24;;;;;;;22.00;11.15;;;;;;;16.78;100.00;100410.63;4918081;29;20035;-88
2022/10/28 09:20:10;;;;;;;15.18;12.10;;;;;;;16.78;99.89;100413.28;4918283;29;20487;-89
2022/10/28 09:22:54;;;;;;;13.50;10.63;;;;;;;16.82;99.57;100408.66;4918129;29;20164;-89
2022/10/28 09:25:47;;;;;;;17.23;11.25;;;;;;;16.83;100.00;100408.56;4917959;29;20120;-89
2022/10/28 09:28:37;;;;;;;18.80;12.07;;;;;;;16.90;99.92;100415.16;4917740;29;20114;-88
2022/10/28 09:31:06;;;;;;;19.58;13.02;;;;;;;16.93;99.72;100412.31;4933578;29;20034;-89
2022/10/28 09:33:34;;;;;;;18.17;12.35;;;;;;;16.95;98.96;100414.88;4947518;29;20475;-88
2022/10/28 09:36:01;;;;;;;18.38;12.65;;;;;;;17.00;99.19;100410.19;4953919;29;20031;-89
2022/10/28 09:38:30;;;;;;;16.65;10.57;;;;;;;17.02;99.37;100404.81;4938172;29;20023;-89
2022/10/28 09:41:23;;;;;;;18.00;12.05;;;;;;;17.09;99.41;100411.41;4937862;29;20023;-88
2022/10/28 09:43:53;;;;;;;17.55;11.63;;;;;;;17.05;99.17;100396.72;4953630;29;20058;-89
2022/10/28 09:46:23;;;;;;;25.77;12.02;;;;;;;17.13;98.72;100399.75;4937776;29;20037;-89
2022/10/28 09:48:50;;;;;;;16.65;10.55;;;;;;;17.18;98.93;100410.81;4938060;29;20661;-89
2022/10/28 09:51:25;;;;;;;24.50;14.70;;;;;;;17.20;99.01;100412.44;4953569;29;20023;-88
2022/10/28 09:53:55;;;;;;;19.23;13.65;;;;;;;17.25;98.98;100406.03;4953676;29;20047;-88
2022/10/28 09:56:22;;;;;;;19.83;14.23;;;;;;;17.25;98.55;100406.03;4953577;29;20479;-89
2022/10/28 09:58:47;;;;;;;20.08;12.73;;;;;;;17.28;98.23;100411.97;4937717;29;20045;-88
2022/10/28 10:01:15;;;;;;;22.88;12.30;;;;;;;17.36;98.43;100404.44;4953122;29;20015;-89
2022/10/28 10:03:42;;;;;;;15.45;10.85;;;;;;;17.39;98.79;100400.75;4937642;29;20031;-89
2022/10/28 10:06:17;;;;;;;17.83;12.30;;;;;;;17.39;98.74;100393.69;4937160;29;20019;-89
2022/10/28 10:08:44;;;;;;;20.10;13.77;;;;;;;17.30;98.12;100370.56;4953625;29;20062;-89
2022/10/28 10:11:19;;;;;;;16.55;12.40;;;;;;;17.49;98.23;100401.88;4937351;29;20134;-89
2022/10/28 10:13:46;;;;;;;20.50;11.77;;;;;;;17.46;98.53;100383.63;4953460;29;20033;-88
2022/10/28 10:16:32;;;;;;;15.30;9.95;;;;;;;17.53;98.06;100395.47;4937229;29;20370;-88
2022/10/28 10:19:01;;;;;;;13.80;9.60;;;;;;;17.57;97.95;100401.34;4954760;28;20038;-91
2022/10/28 10:21:42;;;;;;;12.82;9.25;;;;;;;17.61;97.73;100397.59;4953361;28;20094;-91
2022/10/28 10:24:33;;;;;;;11.48;9.27;;;;;;;17.63;98.45;100388.66;4936981;29;20464;-92
2022/10/28 10:27:08;;;;;;;17.65;9.35;;;;;;;17.66;98.37;100388.47;4953049;29;20481;-91
2022/10/28 10:29:35;;;;;;;14.35;8.05;;;;;;;17.76;98.64;100387.91;4953243;29;20356;-91
2022/10/28 10:32:12;;;;;;;22.08;9.02;;;;;;;17.75;98.39;100375.69;4953009;29;20217;-91
2022/10/28 10:34:43;;;;;;;12.07;7.80;;;;;;;17.82;98.28;100379.59;4952981;29;20087;-91
2022/10/28 10:37:19;;;;;;;12.88;8.50;;;;;;;17.83;98.75;100376.03;4952691;29;20493;-91
2022/10/28 10:39:44;;;;;;;11.68;8.07;;;;;;;17.84;98.59;100381.19;4932756;29;20464;-91
2022/10/28 10:42:23;;;;;;;12.27;7.80;;;;;;;17.91;97.88;100386.91;4916420;29;20031;-91
2022/10/28 10:44:59;;;;;;;9.45;7.95;;;;;;;17.94;97.94;100382.25;4916559;29;20039;-91
2022/10/28 10:47:25;;;;;;;12.45;9.05;;;;;;;17.97;98.37;100375.97;4916450;29;20137;-91
2022/10/28 10:49:51;;;;;;;16.95;9.05;;;;;;;18.04;96.67;100379.03;4916213;29;20120;-91
2022/10/28 10:52:24;;;;;;;12.40;8.23;;;;;;;18.10;96.70;100381.25;4916126;29;20465;-91
2022/10/28 10:55:01;;;;;;;9.15;7.28;;;;;;;18.09;97.19;100369.03;4916258;29;20075;-91
2022/10/28 10:57:27;;;;;;;11.95;8.18;;;;;;;18.17;97.28;100379.91;4916384;29;20028;-92
2022/10/28 10:59:54;;;;;;;11.82;8.27;;;;;;;18.18;96.99;100374.53;4916459;29;20486;-91
2022/10/28 11:02:38;;;;;;;15.18;8.77;;;;;;;18.25;96.78;100366.22;4916036;29;20035;-91
2022/10/28 11:05:09;;;;;;;12.50;8.07;;;;;;;18.27;97.16;100373.06;4916300;29;20046;-92
2022/10/28 11:07:37;;;;;;;12.40;7.70;;;;;;;18.30;97.71;100366.75;4916503;29;20023;-91
2022/10/28 11:10:04;;;;;;;13.40;7.32;;;;;;;18.29;97.67;100365.06;4921112;29;20382;-91
2022/10/28 11:12:34;;;;;;;10.38;7.47;;;;;;;18.33;97.72;100356.84;4952542;29;20030;-91
2022/10/28 11:15:01;;;;;;;10.60;7.88;;;;;;;18.36;98.14;100348.72;4936480;29;20094;-91
2022/10/28 11:17:32;;;;;;;12.52;7.95;;;;;;;18.38;97.75;100348.63;4936465;29;20023;-91
2022/10/28 11:20:06;;;;;;;11.35;6.60;;;;;;;18.40;98.15;100352.00;4952124;29;20027;-91